Glendale, New York
Current Conditions -  °F | °C
As of 3:51 AM on Saturday 29 Nov 2014 (Local Time) from KLGA Reporting Station
Few Clouds Few Clouds  
Wind Chill: 23°   Ceiling: Unl
Heat Index: 29°   Visibility: 10mi
Dew Point: 12°   Wind: 6mph
Humidity: 49%   Direction: 290°WNW
Pressure: 30.31"   Gusts: NA
Location:  40.7008°N, 73.8892°W
Report Text: KLGA 290851Z 29005KT 10SM FEW250 M02/M11 A3031 RMK AO2 SLP261 T10171111 50007
Loading
Personal Weather Stations






























Interactive Weather Map New forecast layout! Learn more

10-Day Weather Forecast

Advertisements
Track Severe Weather on mobile